Spokane, WA (99211)

10:39 PM PDT on October 24, 2014 (GMT -0700)
I-90 & Sprague Ave | Change Station
CLOSE
Current Station
Personal Weather Station
Location: Spokane Valley, WA
Elevation: 1991 ft
Nearby Weather Stations
Active Advisory: Wind Advisory

Elev 1991 ft 47.65 °N, 117.31 °W | Updated 23 seconds ago

Light Rain
Light Rain
48.7 °F
Feels Like 49 °F
N
0.0
Wind Variable Wind from SE
Gusts 0.0 mph

Today
High -- | Low -- °F
--% Chance of Precip.
Yesterday
High -- | Low -- °F
Precip. -- in
7:21 AM 5:44 PM
New Moon, 2% visible
Pressure 30.00 in
Visibility 10.0 miles
Clouds Overcast 6000 ft
Windchill 49 °F
Dew Point 41 °F
Humidity 75%
Rainfall 0.04 in
Snow Depth 1 in
UV 0.0 out of 12
Pollen 1.20 out of 12
PM2.5 Moderate
Flu Activity Sporadic
METAR KSFF 250453Z AUTO 00000KT 10SM -RA OVC060 10/07 A2999 RMK AO2 RAB07E16B37 SLP157 P0001 T01000072

More Conditions Fewer Conditions

Pressure 30.00 in
Visibility 10.0 miles
Clouds Overcast 6000 ft
Windchill 49 °F
Dew Point 41 °F
Humidity 75%
Rainfall 0.04 in
Snow Depth 1 in
UV 0.0 out of 12
Pollen 1.20 out of 12
PM2.5 Moderate
Flu Activity Sporadic
METAR KSFF 250453Z AUTO 00000KT 10SM -RA OVC060 10/07 A2999 RMK AO2 RAB07E16B37 SLP157 P0001 T01000072

More Conditions Fewer Conditions

10-Day Weather Forecast

Almanac

Astronomy

Oct. 24, 2014 Rise Set
Actual Time 7:21 AM PDT 5:44 PM PDT
Civil Twilight 6:49 AM PDT 6:16 PM PDT
Nautical Twilight 6:13 AM PDT 6:52 PM PDT
Astronomical Twilight 5:38 AM PDT 7:27 PM PDT
Moon 8:07 AM PDT (10/24) 6:23 PM PDT (10/24)
Length of Visible Light 11h 26m
Length of Day
10h 23m
Tomorrow will be 3m 13s shorter.
New Moon, 2% of the Moon is Illuminated
Oct 25
New Moon
Oct 30
First Quarter
Nov 6
Full
Nov 14
Last Quarter
Nov 22
New

Yesterday's Extremes

State Highs State Lows

Community

WunderPhotos

Upload Photos

1,764,785 photos uploaded!

Nearby

Air Quality

  Air Quality AQ Index Pollutant
Yesterday Good
PM10
Current Moderate
PM2.5
Friday Good
PM10
Friday Good
CO
Saturday Good
PM10
Saturday Good
CO
Sunday Good
PM10
Sunday Good
CO
Monday Good
PM10
Monday Good
CO

Snow Depth

Station Depth Elevation
Quartz Peak 1 in 4700 ft
Bunchgrass Meadow 0 in 5000 ft
Moses Mountain 0 in 5300 ft
Sentinel Butte 0 in 4920 ft
Sourdough Gulch 0 in 4000 ft

Earthquake Activity

City Distance Mag. Time & Date
No recent earthquake activity has been reported nearby.
Minimum magnitude displayed is 2.5.

Coastal Water Temperatures

Place Temperature
No Stations Reporting

Nearby Weather Stations